Avila, Spain

3:10 PM CEST on July 26, 2014 (GMT +0200)
Avila -La Colilla- (ICASTILL7) Elev 3789 ft | 40.64 °N, 4.77 °W | Change Station

Current weather conditions updated 3 seconds ago

Clear
Clear
89.1 °F
Feels Like 86 °F
N
2.0
Wind Variable Wind from SW
Gusts 5.0 mph

Today is forecast to be Warmer than yesterday.

Today
High -- | Low -- °F
--% Chance of Precip.
Yesterday
High -- | Low -- °F
Precip. -- in
7:09 AM 9:40 PM
Waning Crescent, 0% visible
Pressure 30.01 in
Visibility -9999.0 miles
Clouds
Heat Index 86 °F
Dew Point 45 °F
Humidity 22%
Rainfall 0.00 in
Snow Depth Not available.
UV Not available.
Pollen Not available.
Air Quality Not available.
Flu Activity Not available.
METAR LEVS 261300Z VRB04KT CAVOK 34/02 Q1016

More Conditions Fewer Conditions

Pressure 30.01 in
Visibility -9999.0 miles
Clouds
Heat Index 86 °F
Dew Point 45 °F
Humidity 22%
Rainfall 0.00 in
Snow Depth Not available.
UV Not available.
Pollen Not available.
Air Quality Not available.
Flu Activity Not available.
METAR LEVS 261300Z VRB04KT CAVOK 34/02 Q1016

More Conditions Fewer Conditions

10-Day Weather Forecast

Almanac

Astronomy

Jul. 26, 2014 Rise Set
Actual Time 7:09 AM CEST 9:40 PM CEST
Civil Twilight 6:38 AM CEST 10:11 PM CEST
Nautical Twilight 5:59 AM CEST 10:50 PM CEST
Astronomical Twilight 5:15 AM CEST 11:33 PM CEST
Moon 6:50 AM CEST 9:06 PM CEST
Length of Visible Light 15h 32m
Length of Day
14h 30m
Tomorrow will be 1m 51s shorter.
Waning Crescent, 0% of the Moon is Illuminated
Today
Waning Crescent
Jul 26
New
Aug 3
First Quarter
Aug 10
Full
Aug 17
Last Quarter

Yesterday's Extremes

Country Highs Country Lows

Community

WunderPhotos

Upload Photos

1,737,565 photos uploaded!

Nearby

Snow Depth

Not available.

Earthquake Activity

City Distance Mag. Time & Date
No recent earthquake activity has been reported nearby.
Minimum magnitude displayed is 2.5.

Coastal Water Temperatures

Place Temperature
No Stations Reporting

Nearby Weather Stations

Station Location Temp. Heat Index Dew Point Humidity Wind Precip. Elev Updated Type
Avila -La Colilla-, La Colilla, ÁVILA 89.1 °F 86 °F 45 °F 22% SW  at  2.0 mph 0.00 in / hr 3789 ft 3:10 PM CEST Rapid Fire
Mironcillo, Mironcillo 88.4 °F 85 °F 48 °F 25% NNW  at  5.0 mph 0.00 in / hr 3684 ft 3:10 PM CEST Normal
Pinar Jardin, Marugan 93.0 °F 88 °F 28 °F 10% North  at  6.9 mph 0.00 in / hr 3307 ft 3:00 PM CEST Normal

Show More Stations Show Fewer Stations